sensor_id;sensor_type;location;lat;lon;timestamp;pressure;altitude;pressure_sealevel;temperature;humidity
7168;BME280;3625;51.762;14.320;2023-07-20T00:01:27;100182.81;;;18.32;100.00
7168;BME280;3625;51.762;14.320;2023-07-20T00:03:56;100180.09;;;18.02;100.00
7168;BME280;3625;51.762;14.320;2023-07-20T00:06:26;100181.50;;;17.62;100.00
7168;BME280;3625;51.762;14.320;2023-07-20T00:08:55;100172.56;;;17.46;100.00
7168;BME280;3625;51.762;14.320;2023-07-20T00:11:28;100168.47;;;17.39;100.00
7168;BME280;3625;51.762;14.320;2023-07-20T00:13:57;100186.84;;;17.29;100.00
7168;BME280;3625;51.762;14.320;2023-07-20T00:16:26;100190.03;;;17.20;100.00
7168;BME280;3625;51.762;14.320;2023-07-20T00:18:55;100189.31;;;17.16;100.00
7168;BME280;3625;51.762;14.320;2023-07-20T00:21:24;100182.00;;;17.20;100.00
7168;BME280;3625;51.762;14.320;2023-07-20T00:23:52;100183.53;;;17.24;100.00
7168;BME280;3625;51.762;14.320;2023-07-20T00:26:22;100182.53;;;17.26;100.00
7168;BME280;3625;51.762;14.320;2023-07-20T00:28:52;100178.91;;;17.27;100.00
7168;BME280;3625;51.762;14.320;2023-07-20T00:31:21;100183.63;;;17.22;100.00
7168;BME280;3625;51.762;14.320;2023-07-20T00:33:50;100182.06;;;17.18;100.00
7168;BME280;3625;51.762;14.320;2023-07-20T00:36:19;100177.75;;;17.16;100.00
7168;BME280;3625;51.762;14.320;2023-07-20T00:38:49;100185.84;;;17.14;100.00
7168;BME280;3625;51.762;14.320;2023-07-20T00:41:17;100187.56;;;17.15;100.00
7168;BME280;3625;51.762;14.320;2023-07-20T00:43:46;100195.53;;;17.17;100.00
7168;BME280;3625;51.762;14.320;2023-07-20T00:46:20;100185.53;;;17.20;100.00
7168;BME280;3625;51.762;14.320;2023-07-20T00:48:53;100187.00;;;17.26;100.00
7168;BME280;3625;51.762;14.320;2023-07-20T00:51:29;100156.78;;;17.08;100.00
7168;BME280;3625;51.762;14.320;2023-07-20T00:53:58;100197.00;;;17.22;100.00
7168;BME280;3625;51.762;14.320;2023-07-20T00:56:31;100187.25;;;17.21;100.00
7168;BME280;3625;51.762;14.320;2023-07-20T00:59:06;100186.28;;;17.22;100.00
7168;BME280;3625;51.762;14.320;2023-07-20T01:01:42;100185.53;;;17.20;100.00
7168;BME280;3625;51.762;14.320;2023-07-20T01:04:17;100174.13;;;17.17;100.00
7168;BME280;3625;51.762;14.320;2023-07-20T01:06:53;100177.91;;;17.13;100.00
7168;BME280;3625;51.762;14.320;2023-07-20T01:09:44;100176.78;;;17.01;100.00
7168;BME280;3625;51.762;14.320;2023-07-20T01:12:22;100180.06;;;16.89;100.00
7168;BME280;3625;51.762;14.320;2023-07-20T01:14:58;100178.13;;;16.75;100.00
7168;BME280;3625;51.762;14.320;2023-07-20T01:17:28;100173.56;;;16.60;100.00
7168;BME280;3625;51.762;14.320;2023-07-20T01:19:58;100170.56;;;16.49;100.00
7168;BME280;3625;51.762;14.320;2023-07-20T01:23:09;100171.03;;;16.40;100.00
7168;BME280;3625;51.762;14.320;2023-07-20T01:25:58;100171.34;;;16.34;100.00
7168;BME280;3625;51.762;14.320;2023-07-20T01:28:52;100171.72;;;16.26;100.00
7168;BME280;3625;51.762;14.320;2023-07-20T01:31:32;100160.56;;;16.18;100.00
7168;BME280;3625;51.762;14.320;2023-07-20T01:34:03;100169.81;;;16.11;100.00
7168;BME280;3625;51.762;14.320;2023-07-20T01:36:39;100168.41;;;16.04;100.00
7168;BME280;3625;51.762;14.320;2023-07-20T01:39:09;100173.09;;;15.99;100.00
7168;BME280;3625;51.762;14.320;2023-07-20T01:41:38;100170.56;;;15.96;100.00
7168;BME280;3625;51.762;14.320;2023-07-20T01:44:14;100176.84;;;15.95;100.00
7168;BME280;3625;51.762;14.320;2023-07-20T01:46:44;100170.88;;;15.90;100.00
7168;BME280;3625;51.762;14.320;2023-07-20T01:49:13;100170.09;;;15.88;100.00
7168;BME280;3625;51.762;14.320;2023-07-20T01:51:44;100165.56;;;15.90;100.00
7168;BME280;3625;51.762;14.320;2023-07-20T01:54:16;100161.84;;;15.92;100.00
7168;BME280;3625;51.762;14.320;2023-07-20T01:56:46;100156.31;;;15.97;100.00
7168;BME280;3625;51.762;14.320;2023-07-20T01:59:19;100166.31;;;15.92;100.00
7168;BME280;3625;51.762;14.320;2023-07-20T02:01:55;100168.34;;;15.87;100.00
7168;BME280;3625;51.762;14.320;2023-07-20T02:04:32;100174.50;;;15.89;100.00
7168;BME280;3625;51.762;14.320;2023-07-20T02:07:04;100180.81;;;15.86;100.00
7168;BME280;3625;51.762;14.320;2023-07-20T02:09:33;100187.75;;;15.90;100.00
7168;BME280;3625;51.762;14.320;2023-07-20T02:12:02;100183.19;;;15.92;100.00
7168;BME280;3625;51.762;14.320;2023-07-20T02:14:30;100187.03;;;15.87;100.00
7168;BME280;3625;51.762;14.320;2023-07-20T02:17:01;100172.88;;;15.84;100.00
7168;BME280;3625;51.762;14.320;2023-07-20T02:19:30;100180.03;;;15.84;100.00
7168;BME280;3625;51.762;14.320;2023-07-20T02:21:59;100181.69;;;15.87;100.00
7168;BME280;3625;51.762;14.320;2023-07-20T02:24:28;100194.03;;;15.89;100.00
7168;BME280;3625;51.762;14.320;2023-07-20T02:26:57;100190.31;;;15.92;100.00
7168;BME280;3625;51.762;14.320;2023-07-20T02:29:25;100193.78;;;15.94;100.00
7168;BME280;3625;51.762;14.320;2023-07-20T02:31:54;100185.59;;;15.98;100.00
7168;BME280;3625;51.762;14.320;2023-07-20T02:34:24;100198.91;;;15.98;100.00
7168;BME280;3625;51.762;14.320;2023-07-20T02:36:54;100208.72;;;15.98;100.00
7168;BME280;3625;51.762;14.320;2023-07-20T02:39:24;100202.59;;;15.96;100.00
7168;BME280;3625;51.762;14.320;2023-07-20T02:41:52;100202.47;;;15.99;100.00
7168;BME280;3625;51.762;14.320;2023-07-20T02:44:22;100202.47;;;15.99;100.00
7168;BME280;3625;51.762;14.320;2023-07-20T02:46:50;100192.38;;;15.87;100.00
7168;BME280;3625;51.762;14.320;2023-07-20T02:49:19;100193.47;;;15.82;100.00
7168;BME280;3625;51.762;14.320;2023-07-20T02:51:49;100197.50;;;15.72;100.00
7168;BME280;3625;51.762;14.320;2023-07-20T02:54:21;100199.00;;;15.59;100.00
7168;BME280;3625;51.762;14.320;2023-07-20T02:56:50;100200.44;;;15.47;100.00
7168;BME280;3625;51.762;14.320;2023-07-20T02:59:19;100205.88;;;15.44;100.00
7168;BME280;3625;51.762;14.320;2023-07-20T03:01:48;100208.75;;;15.40;100.00
7168;BME280;3625;51.762;14.320;2023-07-20T03:04:17;100205.38;;;15.36;100.00
7168;BME280;3625;51.762;14.320;2023-07-20T03:06:46;100208.03;;;15.36;100.00
7168;BME280;3625;51.762;14.320;2023-07-20T03:09:16;100204.56;;;15.34;100.00
7168;BME280;3625;51.762;14.320;2023-07-20T03:11:45;100217.97;;;15.33;100.00
7168;BME280;3625;51.762;14.320;2023-07-20T03:14:13;100208.34;;;15.30;100.00
7168;BME280;3625;51.762;14.320;2023-07-20T03:16:42;100209.16;;;15.31;100.00
7168;BME280;3625;51.762;14.320;2023-07-20T03:19:13;100213.56;;;15.32;100.00
7168;BME280;3625;51.762;14.320;2023-07-20T03:21:42;100212.63;;;15.33;100.00
7168;BME280;3625;51.762;14.320;2023-07-20T03:24:11;100224.16;;;15.33;100.00
7168;BME280;3625;51.762;14.320;2023-07-20T03:26:41;100225.91;;;15.34;100.00
7168;BME280;3625;51.762;14.320;2023-07-20T03:29:11;100228.63;;;15.33;100.00
7168;BME280;3625;51.762;14.320;2023-07-20T03:31:39;100229.50;;;15.33;100.00
7168;BME280;3625;51.762;14.320;2023-07-20T03:34:08;100230.00;;;15.41;100.00
7168;BME280;3625;51.762;14.320;2023-07-20T03:36:40;100236.88;;;15.47;100.00
7168;BME280;3625;51.762;14.320;2023-07-20T03:39:11;100235.78;;;15.51;100.00
7168;BME280;3625;51.762;14.320;2023-07-20T03:41:41;100236.50;;;15.56;100.00
7168;BME280;3625;51.762;14.320;2023-07-20T03:44:10;100239.81;;;15.61;100.00
7168;BME280;3625;51.762;14.320;2023-07-20T03:46:39;100232.59;;;15.63;100.00
7168;BME280;3625;51.762;14.320;2023-07-20T03:49:08;100243.09;;;15.66;100.00
7168;BME280;3625;51.762;14.320;2023-07-20T03:51:37;100245.44;;;15.74;100.00
7168;BME280;3625;51.762;14.320;2023-07-20T03:54:06;100238.81;;;15.82;100.00
7168;BME280;3625;51.762;14.320;2023-07-20T03:56:35;100238.22;;;15.95;100.00
7168;BME280;3625;51.762;14.320;2023-07-20T03:59:05;100235.91;;;16.06;100.00
7168;BME280;3625;51.762;14.320;2023-07-20T04:01:34;100235.47;;;16.15;100.00
7168;BME280;3625;51.762;14.320;2023-07-20T04:04:10;100238.63;;;16.23;100.00
7168;BME280;3625;51.762;14.320;2023-07-20T04:06:40;100241.28;;;16.23;100.00
7168;BME280;3625;51.762;14.320;2023-07-20T04:09:12;100247.50;;;16.23;100.00
7168;BME280;3625;51.762;14.320;2023-07-20T04:11:41;100251.09;;;16.22;100.00
7168;BME280;3625;51.762;14.320;2023-07-20T04:14:11;100258.81;;;16.29;100.00
7168;BME280;3625;51.762;14.320;2023-07-20T04:16:40;100257.34;;;16.40;100.00
7168;BME280;3625;51.762;14.320;2023-07-20T04:19:09;100263.75;;;16.36;100.00
7168;BME280;3625;51.762;14.320;2023-07-20T04:21:40;100258.81;;;16.29;100.00
7168;BME280;3625;51.762;14.320;2023-07-20T04:24:09;100262.72;;;16.21;100.00
7168;BME280;3625;51.762;14.320;2023-07-20T04:26:38;100262.78;;;16.20;100.00
7168;BME280;3625;51.762;14.320;2023-07-20T04:29:07;100258.38;;;16.19;100.00
7168;BME280;3625;51.762;14.320;2023-07-20T04:31:42;100264.31;;;16.26;100.00
7168;BME280;3625;51.762;14.320;2023-07-20T04:34:11;100252.94;;;16.39;100.00
7168;BME280;3625;51.762;14.320;2023-07-20T04:36:41;100256.56;;;16.38;100.00
7168;BME280;3625;51.762;14.320;2023-07-20T04:39:10;100249.06;;;16.28;100.00
7168;BME280;3625;51.762;14.320;2023-07-20T04:41:57;100244.91;;;16.22;100.00
7168;BME280;3625;51.762;14.320;2023-07-20T04:44:26;100243.97;;;16.23;100.00
7168;BME280;3625;51.762;14.320;2023-07-20T04:47:00;100248.19;;;16.27;100.00
7168;BME280;3625;51.762;14.320;2023-07-20T04:49:35;100249.84;;;16.30;100.00
7168;BME280;3625;51.762;14.320;2023-07-20T04:52:04;100247.13;;;16.31;100.00
7168;BME280;3625;51.762;14.320;2023-07-20T04:54:34;100250.59;;;16.33;100.00
7168;BME280;3625;51.762;14.320;2023-07-20T04:57:05;100253.09;;;16.36;100.00
7168;BME280;3625;51.762;14.320;2023-07-20T04:59:41;100259.94;;;16.42;100.00
7168;BME280;3625;51.762;14.320;2023-07-20T05:02:11;100257.03;;;16.46;100.00
7168;BME280;3625;51.762;14.320;2023-07-20T05:04:40;100260.03;;;16.57;100.00
7168;BME280;3625;51.762;14.320;2023-07-20T05:07:09;100258.81;;;16.65;100.00
7168;BME280;3625;51.762;14.320;2023-07-20T05:09:38;100256.94;;;16.67;100.00
7168;BME280;3625;51.762;14.320;2023-07-20T05:12:09;100199.28;;;16.44;100.00
7168;BME280;3625;51.762;14.320;2023-07-20T05:14:42;100261.25;;;17.21;100.00
7168;BME280;3625;51.762;14.320;2023-07-20T05:17:13;100269.09;;;17.57;100.00
7168;BME280;3625;51.762;14.320;2023-07-20T05:19:41;100281.03;;;17.84;100.00
7168;BME280;3625;51.762;14.320;2023-07-20T05:22:12;100273.72;;;18.03;100.00
7168;BME280;3625;51.762;14.320;2023-07-20T05:24:42;100271.53;;;18.26;100.00
7168;BME280;3625;51.762;14.320;2023-07-20T05:27:10;100278.88;;;18.38;100.00
7168;BME280;3625;51.762;14.320;2023-07-20T05:29:44;100273.56;;;18.06;100.00
7168;BME280;3625;51.762;14.320;2023-07-20T05:32:14;100270.59;;;17.95;100.00
7168;BME280;3625;51.762;14.320;2023-07-20T05:34:43;100264.03;;;18.01;100.00
7168;BME280;3625;51.762;14.320;2023-07-20T05:37:12;100271.47;;;18.12;100.00
7168;BME280;3625;51.762;14.320;2023-07-20T05:39:41;100265.84;;;18.00;100.00
7168;BME280;3625;51.762;14.320;2023-07-20T05:42:10;100272.50;;;18.09;100.00
7168;BME280;3625;51.762;14.320;2023-07-20T05:44:39;100274.75;;;18.17;100.00
7168;BME280;3625;51.762;14.320;2023-07-20T05:47:08;100277.66;;;18.43;100.00
7168;BME280;3625;51.762;14.320;2023-07-20T05:49:43;100280.19;;;18.62;100.00
7168;BME280;3625;51.762;14.320;2023-07-20T05:52:12;100273.03;;;18.93;100.00
7168;BME280;3625;51.762;14.320;2023-07-20T05:54:40;100277.38;;;19.09;100.00
7168;BME280;3625;51.762;14.320;2023-07-20T05:57:09;100272.50;;;19.16;100.00
7168;BME280;3625;51.762;14.320;2023-07-20T05:59:38;100279.38;;;19.06;100.00
7168;BME280;3625;51.762;14.320;2023-07-20T06:02:07;100279.03;;;19.26;100.00
7168;BME280;3625;51.762;14.320;2023-07-20T06:04:36;100281.66;;;19.42;100.00
7168;BME280;3625;51.762;14.320;2023-07-20T06:07:07;100295.31;;;19.67;100.00
7168;BME280;3625;51.762;14.320;2023-07-20T06:09:36;100288.88;;;19.55;100.00
7168;BME280;3625;51.762;14.320;2023-07-20T06:12:06;100300.97;;;19.33;100.00
7168;BME280;3625;51.762;14.320;2023-07-20T06:14:35;100299.81;;;19.22;100.00
7168;BME280;3625;51.762;14.320;2023-07-20T06:17:04;100292.75;;;19.36;100.00
7168;BME280;3625;51.762;14.320;2023-07-20T06:19:33;100300.03;;;19.34;100.00
7168;BME280;3625;51.762;14.320;2023-07-20T06:22:04;100294.94;;;19.29;100.00
7168;BME280;3625;51.762;14.320;2023-07-20T06:24:35;100250.44;;;18.97;100.00
7168;BME280;3625;51.762;14.320;2023-07-20T06:27:05;100297.84;;;19.40;100.00
7168;BME280;3625;51.762;14.320;2023-07-20T06:29:34;100292.13;;;20.03;100.00
7168;BME280;3625;51.762;14.320;2023-07-20T06:32:06;100304.06;;;20.67;97.88
7168;BME280;3625;51.762;14.320;2023-07-20T06:34:35;100298.44;;;21.24;95.22
7168;BME280;3625;51.762;14.320;2023-07-20T06:37:08;100303.50;;;21.28;91.77
7168;BME280;3625;51.762;14.320;2023-07-20T06:39:38;100313.22;;;20.91;93.95
7168;BME280;3625;51.762;14.320;2023-07-20T06:42:09;100305.84;;;20.81;95.69
7168;BME280;3625;51.762;14.320;2023-07-20T06:44:40;100311.25;;;20.93;94.34
7168;BME280;3625;51.762;14.320;2023-07-20T06:47:09;100315.22;;;20.88;94.13
7168;BME280;3625;51.762;14.320;2023-07-20T06:49:37;100316.00;;;20.90;93.35
7168;BME280;3625;51.762;14.320;2023-07-20T06:52:07;100318.28;;;20.69;92.26
7168;BME280;3625;51.762;14.320;2023-07-20T06:54:37;100313.59;;;20.58;93.10
7168;BME280;3625;51.762;14.320;2023-07-20T06:57:11;100312.50;;;20.75;92.33
7168;BME280;3625;51.762;14.320;2023-07-20T06:59:44;100322.78;;;20.95;87.16
7168;BME280;3625;51.762;14.320;2023-07-20T07:02:14;100327.72;;;21.28;83.43
7168;BME280;3625;51.762;14.320;2023-07-20T07:04:43;100322.41;;;22.04;78.79
7168;BME280;3625;51.762;14.320;2023-07-20T07:07:13;100339.03;;;22.71;73.66
7168;BME280;3625;51.762;14.320;2023-07-20T07:09:54;100336.94;;;22.87;72.28
7168;BME280;3625;51.762;14.320;2023-07-20T07:12:25;100338.19;;;22.58;71.41
7168;BME280;3625;51.762;14.320;2023-07-20T07:14:56;100353.31;;;22.61;72.17
7168;BME280;3625;51.762;14.320;2023-07-20T07:17:25;100347.28;;;22.08;70.00
7168;BME280;3625;51.762;14.320;2023-07-20T07:19:54;100343.09;;;21.78;70.67
7168;BME280;3625;51.762;14.320;2023-07-20T07:22:25;100343.91;;;21.54;73.21
7168;BME280;3625;51.762;14.320;2023-07-20T07:24:55;100341.66;;;21.60;74.06
7168;BME280;3625;51.762;14.320;2023-07-20T07:27:26;100342.28;;;21.38;75.77
7168;BME280;3625;51.762;14.320;2023-07-20T07:29:57;100344.56;;;21.44;77.63
7168;BME280;3625;51.762;14.320;2023-07-20T07:32:26;100346.06;;;21.36;78.70
7168;BME280;3625;51.762;14.320;2023-07-20T07:35:00;100351.66;;;21.33;80.56
7168;BME280;3625;51.762;14.320;2023-07-20T07:37:29;100354.69;;;21.14;80.57
7168;BME280;3625;51.762;14.320;2023-07-20T07:40:08;100355.94;;;21.23;81.22
7168;BME280;3625;51.762;14.320;2023-07-20T07:42:40;100359.28;;;21.26;76.31
7168;BME280;3625;51.762;14.320;2023-07-20T07:45:09;100357.78;;;21.35;74.86
7168;BME280;3625;51.762;14.320;2023-07-20T07:47:38;100353.06;;;21.51;73.79
7168;BME280;3625;51.762;14.320;2023-07-20T07:50:08;100355.44;;;21.56;71.40
7168;BME280;3625;51.762;14.320;2023-07-20T07:52:37;100356.41;;;21.55;71.18
7168;BME280;3625;51.762;14.320;2023-07-20T07:55:08;100355.13;;;21.60;71.78
7168;BME280;3625;51.762;14.320;2023-07-20T07:57:37;100358.78;;;21.72;70.88
7168;BME280;3625;51.762;14.320;2023-07-20T08:00:10;100363.44;;;22.08;70.02
7168;BME280;3625;51.762;14.320;2023-07-20T08:02:42;100361.84;;;22.54;67.57
7168;BME280;3625;51.762;14.320;2023-07-20T08:05:11;100365.63;;;22.88;63.95
7168;BME280;3625;51.762;14.320;2023-07-20T08:07:40;100366.91;;;22.95;63.74
7168;BME280;3625;51.762;14.320;2023-07-20T08:10:14;100357.34;;;23.03;61.77
7168;BME280;3625;51.762;14.320;2023-07-20T08:12:43;100363.72;;;23.25;61.37
7168;BME280;3625;51.762;14.320;2023-07-20T08:15:13;100366.56;;;23.00;59.22
7168;BME280;3625;51.762;14.320;2023-07-20T08:17:46;100373.97;;;22.73;61.79
7168;BME280;3625;51.762;14.320;2023-07-20T08:20:17;100373.03;;;22.98;61.84
7168;BME280;3625;51.762;14.320;2023-07-20T08:22:46;100378.22;;;23.36;58.83
7168;BME280;3625;51.762;14.320;2023-07-20T08:25:17;100378.31;;;23.23;58.16
7168;BME280;3625;51.762;14.320;2023-07-20T08:27:46;100379.59;;;22.70;60.03
7168;BME280;3625;51.762;14.320;2023-07-20T08:30:20;100374.06;;;21.97;65.62
7168;BME280;3625;51.762;14.320;2023-07-20T08:32:54;100373.50;;;21.41;69.99
7168;BME280;3625;51.762;14.320;2023-07-20T08:35:26;100375.78;;;21.34;72.32
7168;BME280;3625;51.762;14.320;2023-07-20T08:37:56;100376.78;;;21.59;70.42
7168;BME280;3625;51.762;14.320;2023-07-20T08:40:43;100379.03;;;21.90;68.41
7168;BME280;3625;51.762;14.320;2023-07-20T08:43:16;100382.75;;;22.02;68.12
7168;BME280;3625;51.762;14.320;2023-07-20T08:45:49;100377.78;;;22.21;67.75
7168;BME280;3625;51.762;14.320;2023-07-20T08:48:24;100376.50;;;22.14;67.53
7168;BME280;3625;51.762;14.320;2023-07-20T08:50:56;100375.38;;;21.66;66.99
7168;BME280;3625;51.762;14.320;2023-07-20T08:53:35;100379.91;;;21.53;69.11
7168;BME280;3625;51.762;14.320;2023-07-20T08:56:10;100377.41;;;21.10;69.93
7168;BME280;3625;51.762;14.320;2023-07-20T08:58:46;100382.47;;;20.88;70.52
7168;BME280;3625;51.762;14.320;2023-07-20T09:01:30;100383.50;;;20.99;67.77
7168;BME280;3625;51.762;14.320;2023-07-20T09:04:06;100381.81;;;21.51;63.66
7168;BME280;3625;51.762;14.320;2023-07-20T09:06:45;100378.94;;;22.30;59.60
7168;BME280;3625;51.762;14.320;2023-07-20T09:09:18;100380.44;;;23.07;57.76
7168;BME280;3625;51.762;14.320;2023-07-20T09:11:56;100382.69;;;23.83;55.95
7168;BME280;3625;51.762;14.320;2023-07-20T09:14:26;100394.31;;;23.72;54.21
7168;BME280;3625;51.762;14.320;2023-07-20T09:17:02;100387.59;;;23.43;56.55
7168;BME280;3625;51.762;14.320;2023-07-20T09:19:46;100391.31;;;23.53;56.35
7168;BME280;3625;51.762;14.320;2023-07-20T09:22:16;100384.91;;;23.78;56.36
7168;BME280;3625;51.762;14.320;2023-07-20T09:24:52;100384.59;;;23.58;55.27
7168;BME280;3625;51.762;14.320;2023-07-20T09:27:35;100383.66;;;23.47;56.66
7168;BME280;3625;51.762;14.320;2023-07-20T09:30:07;100389.56;;;23.76;55.83
7168;BME280;3625;51.762;14.320;2023-07-20T09:32:49;100384.09;;;24.22;52.26
7168;BME280;3625;51.762;14.320;2023-07-20T09:35:23;100396.81;;;23.97;51.48
7168;BME280;3625;51.762;14.320;2023-07-20T09:38:01;100382.81;;;23.46;52.91
7168;BME280;3625;51.762;14.320;2023-07-20T09:40:38;100387.28;;;23.23;54.10
7168;BME280;3625;51.762;14.320;2023-07-20T09:43:16;100378.47;;;23.56;53.62
7168;BME280;3625;51.762;14.320;2023-07-20T09:45:58;100372.50;;;23.97;52.77
7168;BME280;3625;51.762;14.320;2023-07-20T09:48:32;100375.00;;;24.23;51.65
7168;BME280;3625;51.762;14.320;2023-07-20T09:51:25;100392.41;;;23.96;48.69
7168;BME280;3625;51.762;14.320;2023-07-20T09:54:02;100394.84;;;23.88;49.14
7168;BME280;3625;51.762;14.320;2023-07-20T09:56:33;100386.78;;;24.11;49.60
7168;BME280;3625;51.762;14.320;2023-07-20T09:59:04;100389.63;;;24.42;49.70
7168;BME280;3625;51.762;14.320;2023-07-20T10:01:35;100390.44;;;24.76;49.15
7168;BME280;3625;51.762;14.320;2023-07-20T10:04:08;100398.19;;;24.92;48.11
7168;BME280;3625;51.762;14.320;2023-07-20T10:06:42;100393.66;;;24.59;47.10
7168;BME280;3625;51.762;14.320;2023-07-20T10:09:13;100380.63;;;24.08;47.11
7168;BME280;3625;51.762;14.320;2023-07-20T10:11:50;100386.47;;;23.45;48.33
7168;BME280;3625;51.762;14.320;2023-07-20T10:14:48;100382.34;;;22.93;50.17
7168;BME280;3625;51.762;14.320;2023-07-20T10:17:21;100376.81;;;22.58;50.79
7168;BME280;3625;51.762;14.320;2023-07-20T10:19:54;100374.19;;;22.70;51.44
7168;BME280;3625;51.762;14.320;2023-07-20T10:22:27;100372.59;;;22.80;51.01
7168;BME280;3625;51.762;14.320;2023-07-20T10:25:08;100378.63;;;22.71;51.86
7168;BME280;3625;51.762;14.320;2023-07-20T10:27:39;100367.69;;;22.48;50.71
7168;BME280;3625;51.762;14.320;2023-07-20T10:30:10;100372.94;;;22.13;52.81
7168;BME280;3625;51.762;14.320;2023-07-20T10:32:40;100369.91;;;21.93;53.20
7168;BME280;3625;51.762;14.320;2023-07-20T10:35:14;100360.09;;;21.92;51.93
7168;BME280;3625;51.762;14.320;2023-07-20T10:37:51;100370.44;;;21.98;51.74
7168;BME280;3625;51.762;14.320;2023-07-20T10:40:25;100359.47;;;22.13;53.42
7168;BME280;3625;51.762;14.320;2023-07-20T10:42:58;100359.03;;;22.19;53.16
7168;BME280;3625;51.762;14.320;2023-07-20T10:45:47;100363.44;;;22.08;50.89
7168;BME280;3625;51.762;14.320;2023-07-20T10:48:18;100353.63;;;22.07;51.26
7168;BME280;3625;51.762;14.320;2023-07-20T10:51:09;100350.59;;;22.24;50.91
7168;BME280;3625;51.762;14.320;2023-07-20T10:53:38;100353.41;;;22.23;50.38
7168;BME280;3625;51.762;14.320;2023-07-20T10:56:11;100352.59;;;22.46;50.41
7168;BME280;3625;51.762;14.320;2023-07-20T10:58:42;100348.19;;;22.81;49.55
7168;BME280;3625;51.762;14.320;2023-07-20T11:01:16;100358.22;;;22.79;48.97
7168;BME280;3625;51.762;14.320;2023-07-20T11:03:49;100358.97;;;22.69;49.88
7168;BME280;3625;51.762;14.320;2023-07-20T11:06:31;100357.59;;;22.76;49.93
7168;BME280;3625;51.762;14.320;2023-07-20T11:09:07;100350.47;;;22.75;48.21
7168;BME280;3625;51.762;14.320;2023-07-20T11:11:38;100362.34;;;22.59;48.96
7168;BME280;3625;51.762;14.320;2023-07-20T11:14:09;100348.13;;;22.57;49.61
7168;BME280;3625;51.762;14.320;2023-07-20T11:16:43;100357.59;;;22.76;50.46
7168;BME280;3625;51.762;14.320;2023-07-20T11:19:17;100352.25;;;23.11;47.70
7168;BME280;3625;51.762;14.320;2023-07-20T11:21:55;100344.63;;;23.40;47.48
7168;BME280;3625;51.762;14.320;2023-07-20T11:24:31;100354.78;;;23.71;46.92
7168;BME280;3625;51.762;14.320;2023-07-20T11:27:00;100358.75;;;23.78;46.51
7168;BME280;3625;51.762;14.320;2023-07-20T11:29:32;100358.75;;;23.43;46.13
7168;BME280;3625;51.762;14.320;2023-07-20T11:32:04;100352.34;;;23.09;46.85
7168;BME280;3625;51.762;14.320;2023-07-20T11:34:34;100358.75;;;23.08;46.38
7168;BME280;3625;51.762;14.320;2023-07-20T11:37:05;100350.66;;;23.08;46.68
7168;BME280;3625;51.762;14.320;2023-07-20T11:39:37;100351.63;;;23.07;47.17
7168;BME280;3625;51.762;14.320;2023-07-20T11:42:06;100360.16;;;23.25;47.13
7168;BME280;3625;51.762;14.320;2023-07-20T11:44:35;100356.78;;;23.45;46.31
7168;BME280;3625;51.762;14.320;2023-07-20T11:47:07;100348.53;;;23.36;46.58
7168;BME280;3625;51.762;14.320;2023-07-20T11:49:43;100352.06;;;23.25;46.59
7168;BME280;3625;51.762;14.320;2023-07-20T11:52:15;100349.22;;;23.15;46.69
7168;BME280;3625;51.762;14.320;2023-07-20T11:54:44;100353.44;;;23.30;45.74
7168;BME280;3625;51.762;14.320;2023-07-20T11:57:16;100359.16;;;23.50;44.64
7168;BME280;3625;51.762;14.320;2023-07-20T11:59:54;100352.13;;;23.93;43.74
7168;BME280;3625;51.762;14.320;2023-07-20T12:02:27;100350.50;;;24.69;42.71
7168;BME280;3625;51.762;14.320;2023-07-20T12:04:57;100354.91;;;25.24;40.65
7168;BME280;3625;51.762;14.320;2023-07-20T12:07:28;100343.56;;;25.51;39.22
7168;BME280;3625;51.762;14.320;2023-07-20T12:10:05;100349.97;;;25.50;39.17
7168;BME280;3625;51.762;14.320;2023-07-20T12:12:34;100345.59;;;25.79;39.60
7168;BME280;3625;51.762;14.320;2023-07-20T12:15:14;100297.66;;;26.10;39.19
7168;BME280;3625;51.762;14.320;2023-07-20T12:17:45;100356.91;;;26.36;38.60
7168;BME280;3625;51.762;14.320;2023-07-20T12:20:26;100345.34;;;25.82;39.34
7168;BME280;3625;51.762;14.320;2023-07-20T12:23:01;100343.00;;;25.57;40.00
7168;BME280;3625;51.762;14.320;2023-07-20T12:25:39;100336.63;;;25.26;39.75
7168;BME280;3625;51.762;14.320;2023-07-20T12:28:10;100346.00;;;24.90;39.96
7168;BME280;3625;51.762;14.320;2023-07-20T12:30:43;100315.28;;;24.80;40.01
7168;BME280;3625;51.762;14.320;2023-07-20T12:33:14;100346.28;;;25.19;39.21
7168;BME280;3625;51.762;14.320;2023-07-20T12:35:45;100351.88;;;25.06;39.44
7168;BME280;3625;51.762;14.320;2023-07-20T12:38:14;100340.78;;;25.09;39.59
7168;BME280;3625;51.762;14.320;2023-07-20T12:40:43;100339.75;;;24.90;40.13
7168;BME280;3625;51.762;14.320;2023-07-20T12:43:12;100340.44;;;25.03;39.92
7168;BME280;3625;51.762;14.320;2023-07-20T12:45:43;100344.53;;;24.97;40.47
7168;BME280;3625;51.762;14.320;2023-07-20T12:48:16;100341.47;;;25.23;39.72
7168;BME280;3625;51.762;14.320;2023-07-20T12:50:45;100335.16;;;25.33;39.90
7168;BME280;3625;51.762;14.320;2023-07-20T12:53:17;100343.09;;;25.67;39.09
7168;BME280;3625;51.762;14.320;2023-07-20T12:55:49;100336.66;;;25.47;38.88
7168;BME280;3625;51.762;14.320;2023-07-20T12:58:20;100347.53;;;25.68;39.24
7168;BME280;3625;51.762;14.320;2023-07-20T13:00:51;100357.22;;;25.91;38.38
7168;BME280;3625;51.762;14.320;2023-07-20T13:03:29;100353.97;;;25.97;38.75
7168;BME280;3625;51.762;14.320;2023-07-20T13:06:01;100351.25;;;25.97;38.43
7168;BME280;3625;51.762;14.320;2023-07-20T13:08:33;100350.31;;;26.28;38.36
7168;BME280;3625;51.762;14.320;2023-07-20T13:11:02;100357.88;;;26.35;38.54
7168;BME280;3625;51.762;14.320;2023-07-20T13:13:32;100348.03;;;25.82;38.76
7168;BME280;3625;51.762;14.320;2023-07-20T13:16:03;100352.91;;;25.88;39.16
7168;BME280;3625;51.762;14.320;2023-07-20T13:18:34;100349.53;;;25.96;38.86
7168;BME280;3625;51.762;14.320;2023-07-20T13:21:03;100345.81;;;26.18;38.50